DIVISION OF AGRICULTURAL PHYSICS
INDIAN AGRICULTURAL RESEARCH INSTITUTE
NEW DELHI, INDIA-110012
Phone No. 011-25843014

(IARI: Latitude: 280 38'23"N, Longitude:770 09'27"E., Altitude: 228.61m above msl.)
Duration of data : Last 60 days
Date Max.
Temp.
(oC)
Min.
Temp.
(oC)
Rainfall
(mm)
Wind
Speed
(Kmph)
Wind
Direction-I
Wind
Direction-II
Weather
condition-I
(Code 0-9)
Weather
condition-II
(Code 0-9)
RH-I
(%)
RH-II
(%)
BSS
(hrs)
Evaporation
(mm)
2017-01-22 18.6 6.8 0.00 2.8 C NW 4 0 97.0 48.0 1.5 1.8
2017-01-23 23.0 9.0 0.00 2.4 C NW 4 4 97.0 55.0 3.5 2.0
2017-01-24 23.4 8.4 0.00 2.8 C N 4 4 97.0 48.0 6.1 2.6
2017-01-25 24.4 11.4 0.00 1.8 C E 4 4 95.0 63.0 5.5 2.3
2017-01-26 24.4 16.0 2.40 6.5 SE NW 4 6 84.0 98.0 0.0 2.4
2017-01-27 18.0 12.6 57.40 6.3 W W 4 1 98.0 77.0 0.0 1.8
2017-01-28 19.0 10.0 0.00 7.7 W NW 4 1 97.0 86.0 3.1 2.0
2017-01-29 18.5 11.2 0.00 7.5 W W 4 0 98.0 77.0 4.2 2.3
2017-01-30 20.4 7.8 0.00 4.1 C W 4 4 97.0 66.0 4.7 2.4
2017-01-31 21.0 8.2 0.00 2.3 C W 4 0 97.0 64.0 5.6 2.8
2017-02-01 22.0 8.0 0.00 2.6 C NW 4 0 97.0 64.0 6.9 3.0
2017-02-02 21.8 6.2 0.00 3.2 C NW 4 0 97.0 44.0 6.7 3.4
2017-02-03 22.5 7.6 0.00 1.6 C W 4 0 92.0 46.0 5.3 2.6
2017-02-04 24.0 11.2 0.00 1.5 C S 4 4 98.0 70.0 6.0 3.0
2017-02-05 22.0 14.4 0.00 7.2 SE SE 4 1 89.0 67.0 0.9 3.0
2017-02-06 22.0 11.2 0.00 3.9 C W 4 0 98.0 58.0 0.7 2.8
2017-02-07 22.0 9.0 0.00 6.4 W W 4 0 87.0 51.0 6.0 3.0
2017-02-08 20.5 7.4 0.00 4.8 C W 4 0 97.0 43.0 8.2 3.5
2017-02-09 23.0 7.4 0.00 3.0 C W 4 0 94.0 52.0 8.0 4.0
2017-02-10 21.0 8.8 0.00 6.1 W W 4 0 97.0 44.0 7.4 4.0
2017-02-11 22.0 5.8 0.00 5.3 C NW 4 0 97.0 41.0 8.8 4.0
2017-02-12 23.0 6.0 0.00 2.6 C NE 4 0 94.0 46.0 8.8 3.8
2017-02-13 23.2 6.2 0.00 2.4 C NW 4 0 97.0 49.0 7.0 3.7
2017-02-14 23.2 9.0 0.00 3.8 C NW 4 0 90.0 44.0 8.5 4.8
2017-02-15 24.0 7.8 0.00 4.3 C W 4 0 95.0 48.0 7.4 3.6
2017-02-16 25.4 11.6 0.00 4.2 W NW 0 1 95.0 85.0 8.2 3.9
2017-02-17 25.3 13.9 0.00 6.8 NW NNW 1 0 79.0 60.0 4.9 4.1
2017-02-18 26.2 12.1 0.00 4.6 C NW 4 0 98.0 51.0 2.9 4.0
2017-02-19 24.4 14.2 0.00 3.6 C W 4 0 98.0 41.0 7.2 4.7
2017-02-20 29.8 14.0 0.00 2.8 C W 4 0 93.0 42.0 7.7 4.2
2017-02-21 31.0 15.0 0.00 4.4 SW W 4 0 94.0 38.0 8.0 4.6
2017-02-22 24.5 9.2 0.00 5.3 C NW 4 0 97.0 43.0 6.2 3.4
2017-02-23 25.8 10.8 0.00 4.9 NW NW 4 0 77.0 29.0 8.3 4.2
2017-02-24 24.1 11.6 0.00 9.3 NW NW 0 0 67.0 43.0 10.0 6.0
2017-02-25 24.0 12.1 0.00 11.5 NW NW 0 0 73.0 40.0 10.0 6.1
2017-02-26 24.4 10.7 0.00 7.7 W NW 0 0 86.0 45.0 9.7 5.8
2017-02-27 26.2 8.4 0.00 6.4 C NNW 0 0 83.0 42.0 9.5 5.2
2017-02-28 27.7 9.6 0.00 3.6 NNW NW 0 0 97.0 40.0 9.6 5.4
2017-03-01 30.7 15.6 0.00 2.7 NW S 0 0 72.0 50.0 7.7 5.9
2017-03-02 29.0 14.0 0.00 4.0 C SW 1 1 85.0 48.0 6.5 4.5
2017-03-03 27.5 12.0 0.00 4.9 C NNW 0 0 82.0 35.0 3.2 4.6
2017-03-04 26.5 9.6 0.00 4.3 C NW 0 0 81.0 31.0 6.4 3.8
2017-03-05 14.6 12.4 0.00 5.5 W NW 0 0 76.0 36.0 10.0 4.0
2017-03-06 26.4 8.5 0.00 6.7 C NW 0 0 80.0 36.0 9.5 4.6
2017-03-07 27.5 9.3 0.00 5.5 C C 0 1 87.0 38.0 8.8 5.0
2017-03-08 30.0 17.4 0.00 4.8 NE NE 1 0 66.0 53.0 7.4 5.2
2017-03-09 25.5 13.4 0.50 7.1 C NE 1 1 91.0 58.0 5.4 5.5
2017-03-10 27.4 14.0 11.60 6.0 C SE 1 1 93.0 64.0 5.9 4.6
2017-03-11 24.5 11.0 0.00 8.3 NE NW 0 0 86.0 62.0 5.3 4.4
2017-03-12 23.0 8.4 5.00 4.2 C NW 0 0 95.0 55.0 8.3 3.7
2017-03-13 22.4 8.5 0.00 4.5 C NW 0 0 92.0 62.0 8.9 5.0
2017-03-14 23.4 6.4 0.00 4.7 C C 0 0 97.0 43.0 9.8 5.7
2017-03-15 25.5 7.5 0.00 2.9 C W 4 0 95.0 36.0 8.9 3.5
2017-03-16 27.8 12.0 0.00 4.7 C W 4 1 89.0 39.0 9.0 5.0
2017-03-17 29.5 12.5 0.00 3.6 C NNW 4 0 89.0 54.0 5.1 5.2
2017-03-18 26.5 12.0 0.00 6.5 C NNW 4 1 95.0 42.0 9.1 5.0
2017-03-19 29.6 12.4 0.00 3.4 C NW 1 1 89.0 51.0 9.2 5.5
2017-03-20 29.0 12.2 0.00 3.8 C NW 4 0 92.0 40.0 5.8 5.0
2017-03-21 30.0 13.2 0.00 6.0 W W 0 0 90.0 37.0 8.9 6.0
2017-03-22 33.2 15.5 0.00 4.7 C NW 0 0 82.0 38.0 9.0 6.2
2017-03-23 35.0 15.5 0.00 5.4 C 4 0 90.0 0.0 9.4 6.0

Abbrevations used:
I - Observations taken at 7.21 hrs. and II - Observations taken at 14:21 hrs.
Codes:
0 - Fair (clear and slightly clouded), 1 - Variable Sky, 2 - Mainly Overcast, 3 - Sand Storm or Dust Storm,4 - Fog or Thick Dust Haze, 5 - Drizzle, 6 - Rain,7 - Snow or Sleet, 8 - Shower (s), 9 - Thunder Storm with or without Precipitation